Main page
METAR-TAF:

METAR-TAF

Airports :

Burgos, Spain

Burgos Airport

latitude: 42-22N, longitude: 003-38W, elevation: 894 m

Current weather observation

The report was made 32 minutes ago, at 04:00 UTC
Wind 5 kt from the Southwest
Temperature 10°C
Humidity 87%
Pressure 1013 hPa
Visibility 10 km or more

METAR: LEBG 270400Z AUTO 22005KT 9999 NCD 10/08 Q1013

Time: 06:32 (04:32 UTC)

Forecast

The report was made 2 hours and 32 minutes ago, at 02:00 UTC
Forecast valid from 27 at 03 UTC to 27 at 12 UTC
Wind 12 kt from the Northeast
Visibility 10 km or more
no clouds below 1500 m and no cumulonimbus
Becoming
from 27 at 04 UTC to 27 at 06 UTC
Wind 7 kt from the South/Southwest
Becoming
from 27 at 10 UTC to 27 at 12 UTC
Wind 10 kt from the West

TAF: LEBG 270200Z 2703/2712 04012KT CAVOK BECMG 2704/2706 20007KT BECMG 2710/2712 26010KT

Weather observations and forecasts of more than 4000 airports (METAR and TAF reports).

The available stations are represented by yellow and red dots on the map.

Hover mouse over dot to see the name of the station.

Then click to see weather observations and forecasts.

To change the map : click on the green buttons with a black cross to zoom in, on the green button with a dash to zoom out, or on the green arrows for adjacent maps.


METAR-TAF: